ADDS METAR Data INFO
IDs: Format: Raw Decoded Include TAF

Data at: 0137 UTC 26 Feb 2018

KSGT 260056Z AUTO 10003KT 10SM CLR 11/06 A3012 RMK AO2 PRESRR SLP201 T01110056
KSGT 252356Z AUTO 08005KT 10SM CLR 11/06 A3008 RMK AO2 SLP187 T01110056 10122 20111 56006
KSGT 252256Z AUTO 07007KT 10SM CLR 12/04 A3008 RMK AO2 SLP188 T01170044
KSGT 252156Z AUTO 04010KT 10SM CLR 11/05 A3008 RMK AO2 SLP187 T01110050
KSGT 252056Z AUTO 05005KT 10SM CLR 12/04 A3010 RMK AO2 SLP193 T01170039 56011
KSGT 251956Z AUTO 12008KT 10SM BKN110 12/03 A3010 RMK AO2 SLP195 T01170028
KSGT 251856Z AUTO 11003KT 10SM CLR 12/02 A3011 RMK AO2 SLP198 T01220022
KSGT 251756Z AUTO 04003KT 10SM CLR 11/03 A3013 RMK AO2 SLP204 T01110028 10111 20067 58004
KSGT 251656Z AUTO 08004KT 10SM CLR 11/03 A3015 RMK AO2 SLP212 T01110033
KSGT 251556Z AUTO 08005KT 10SM CLR 10/04 A3015 RMK AO2 SLP211 T01000039
KSGT 251456Z AUTO 06007KT 10SM CLR 09/03 A3014 RMK AO2 SLP208 T00890033 51014
KSGT 251356Z AUTO 07006KT 10SM CLR 08/03 A3014 RMK AO2 SLP207 T00780033
KSGT 251256Z AUTO 01008KT 10SM CLR 07/03 A3012 RMK AO2 SLP202 T00670028
KSGT 251156Z AUTO 01008KT 10SM CLR 07/03 A3010 RMK AO2 SLP194 70106 T00720033 10128 20072 53021
KSGT 251056Z AUTO 36009KT 10SM CLR 08/03 A3009 RMK AO2 SLP188 T00830033
KSGT 250956Z AUTO 36014KT 10SM CLR 09/06 A3004 RMK AO2 SLP173 T00940056
KSGT 250856Z AUTO 32010KT 10SM CLR 11/07 A3004 RMK AO2 SLP172 T01060072 51014
KSGT 250756Z AUTO 30011KT 10SM CLR 11/07 A3003 RMK AO2 SLP170 T01110072
KSGT 250656Z AUTO 30013KT 10SM FEW075 12/07 A3001 RMK AO2 SLP163 T01220072
KSGT 250556Z AUTO 29014KT 10SM FEW075 OVC110 13/09 A3000 RMK AO2 SLP158 60043 T01280089 10167 20128 402280128 51034
KSGT 250456Z AUTO 28010KT 10SM BKN090 13/11 A2997 RMK AO2 SLP150 T01330111
KSGT 250440Z AUTO 28013KT 10SM FEW026 BKN080 14/11 A2996 RMK AO2
KSGT 250416Z AUTO 28019KT 10SM SCT014 BKN024 BKN110 14/13 A2995 RMK AO2
KSGT 250356Z AUTO 25011KT 10SM FEW017 SCT090 BKN110 14/13 A2992 RMK AO2 RAE15 SLP133 P0000 T01390128
KSGT 250315Z AUTO 24010KT 10SM FEW023 BKN090 OVC110 13/12 A2989 RMK AO2 RAE15 P0000
KSGT 250256Z AUTO 24011KT 10SM -RA SCT018 BKN023 OVC110 14/12 A2990 RMK AO2 SLP124 P0005 60043 T01390117 53027
KSGT 250238Z AUTO 23011KT 10SM BKN018 BKN095 OVC110 14/12 A2990 RMK AO2 RAE37 P0004
KSGT 250156Z AUTO 21009KT 10SM RA OVC095 14/13 A2984 RMK AO2 SLP105 P0017 T01390128
KSGT 250056Z AUTO 25014KT 10SM RA FEW050 BKN060 OVC080 15/12 A2985 RMK AO2 TSE22 SLP108 P0021 T01500122
KSGT 250028Z AUTO 24016KT 10SM RA FEW050 BKN065 OVC090 16/13 A2984 RMK AO2 LTG DSNT NE-SE TSE22 P0011
KSGT 242356Z AUTO 26020G26KT 7SM TSRA FEW010 BKN036 OVC060 17/16 A2982 RMK AO2 PK WND 26040/2316 WSHFT 2302 LTG DSNT ALQDS TSB01RAB17 SLP097 P0055 60057 T01670156 10228 20167 53023
KSGT 242348Z AUTO 25023G29KT 3SM VCTS RA BR SCT010 BKN024 OVC055 17/16 A2981 RMK AO2 PK WND 26040/2316 WSHFT 2302 LTG DSNT NE AND SW TSB01RAB17 P0049
KSGT 242344Z AUTO 26022G31KT 1 3/4SM VCTS +RA BR FEW010 BKN024 OVC032 17/16 A2980 RMK AO2 PK WND 26040/2316 WSHFT 2302 LTG DSNT ALQDS TSB01RAB17 P0046
KSGT 242336Z AUTO 27023G31KT 2SM VCTS RA BR FEW008 BKN024 OVC055 17/16 A2980 RMK AO2 PK WND 26040/2316 WSHFT 2302 VIS 1 1/2V5 LTG DSNT ALQDS TSB01RAB17 PRESRR P0026
KSGT 242322Z AUTO 27027G40KT 6SM +TSRA BR FEW017 BKN029 OVC060 18/16 A2978 RMK AO2 PK WND 26040/2316 WSHFT 2302 LTG DSNT ALQDS TSB01RAB17 P0004
KSGT 242307Z AUTO 20017KT 10SM VCTS BKN060 BKN085 OVC120 22/18 A2976 RMK AO2 LTG DSNT W-N TSB01
KSGT 242256Z AUTO 20014KT 10SM FEW085 BKN110 22/19 A2975 RMK AO2 PK WND 18027/2212 LTG DSNT W-N RAB06E20 SLP075 P0000 T02170189
KSGT 242156Z AUTO 18019G24KT 10SM FEW041 BKN065 OVC100 22/19 A2974 RMK AO2 RAE04 SLP069 P0000 T02170189
KSGT 242056Z AUTO 18019KT 10SM -RA SCT029 BKN036 BKN050 22/19 A2975 RMK AO2 RAB08 SLP073 P0002 60002 T02220194 56040
KSGT 241956Z AUTO 17018G24KT 10SM FEW035 23/19 A2977 RMK AO2 SLP081 T02280189
KSGT 241856Z AUTO 17021KT 10SM SCT033 BKN044 22/20 A2982 RMK AO2 SLP096 T02220200
KSGT 241819Z AUTO 18017KT 10SM SCT009 OVC090 21/19 A2985 RMK AO2
KSGT 241805Z AUTO 17016KT 10SM BKN009 OVC090 21/19 A2986 RMK AO2 CIG 008V015
KSGT 241756Z AUTO 17014KT 10SM SCT007 BKN011 OVC090 20/19 A2987 RMK AO2 TSE17RAE28B44E55 SLP114 P0002 60006 T02000189 10200 20167 56033
KSGT 241723Z AUTO 17015KT 8SM -RA OVC007 20/19 A2989 RMK AO2 LTG DSNT N-E TSE17 CIG 004V012 P0002
KSGT 241656Z AUTO 17015KT 4SM TSRA BR OVC007 19/19 A2991 RMK AO2 LTG DSNT W-N TSB39RAB36 CIG 005V010 SLP127 P0004 T01940189
KSGT 241645Z AUTO 17014KT 8SM VCTS -RA OVC007 19/19 A2991 RMK AO2 LTG DSNT S-NW TSB39RAB36 P0000
KSGT 241556Z AUTO 17010KT 8SM BKN007 OVC010 19/19 A2993 RMK AO2 SLP134 T01940189
KSGT 241514Z AUTO 17009KT 5SM BR OVC007 19/18 A2996 RMK AO2 CIG 005V009
KSGT 241456Z AUTO 16008KT 4SM BR OVC010 18/18 A2997 RMK AO2 CIG 005V013 SLP148 T01830183 58007
KSGT 241356Z AUTO 15007KT 3SM BR OVC010 17/17 A2998 RMK AO2 CIG 009V013 SLP151 T01720172
KSGT 241342Z AUTO 16008KT 3SM BR OVC012 17/17 A2998 RMK AO2